Rosie, Arkansas
Current Conditions -  °F | °C
As of 1:56 AM on Sunday 26 Oct 2014 (Local Time) from KM19 Reporting Station
Haze Haze  
Wind Chill: 62°   Ceiling: Unl
Heat Index: 62°   Visibility: 5mi
Dew Point: 61°   Wind: 3mph
Humidity: 97%   Direction: 180°S
Pressure: 30"   Gusts: NA
Location:  35.67°N, 91.54°W
Report Text: KM19 260656Z AUTO 18003KT 5SM BR CLR 17/16 A3000 RMK AO2 T01660161 SLP156
Loading
Personal Weather Stations






























Interactive Weather Map
Tropical Storm Tracking
New forecast layout! Learn more

10-Day Weather Forecast

Advertisements
Track Severe Weather on mobile